sensor_id;sensor_type;location;lat;lon;timestamp;temperature;humidity
74359;DHT22;62792;46.236;6.040;2023-12-29T00:01:00;17.40;52.10
74359;DHT22;62792;46.236;6.040;2023-12-29T00:06:03;17.50;52.10
74359;DHT22;62792;46.236;6.040;2023-12-29T00:11:06;17.40;52.40
74359;DHT22;62792;46.236;6.040;2023-12-29T00:16:11;17.40;52.40
74359;DHT22;62792;46.236;6.040;2023-12-29T00:21:14;17.40;52.40
74359;DHT22;62792;46.236;6.040;2023-12-29T00:26:20;17.40;52.30
74359;DHT22;62792;46.236;6.040;2023-12-29T00:31:25;17.50;52.70
74359;DHT22;62792;46.236;6.040;2023-12-29T00:36:28;17.40;52.50
74359;DHT22;62792;46.236;6.040;2023-12-29T00:41:31;17.30;53.00
74359;DHT22;62792;46.236;6.040;2023-12-29T00:46:35;17.30;52.90
74359;DHT22;62792;46.236;6.040;2023-12-29T00:51:39;17.40;52.70
74359;DHT22;62792;46.236;6.040;2023-12-29T00:56:47;17.30;52.70
74359;DHT22;62792;46.236;6.040;2023-12-29T01:01:52;17.30;52.80
74359;DHT22;62792;46.236;6.040;2023-12-29T01:06:55;17.30;52.70
74359;DHT22;62792;46.236;6.040;2023-12-29T01:11:58;17.40;52.70
74359;DHT22;62792;46.236;6.040;2023-12-29T01:17:02;17.40;52.90
74359;DHT22;62792;46.236;6.040;2023-12-29T01:22:05;17.30;52.90
74359;DHT22;62792;46.236;6.040;2023-12-29T01:27:08;17.40;53.00
74359;DHT22;62792;46.236;6.040;2023-12-29T01:32:13;17.40;52.80
74359;DHT22;62792;46.236;6.040;2023-12-29T01:37:16;17.40;53.00
74359;DHT22;62792;46.236;6.040;2023-12-29T01:42:19;17.30;52.80
74359;DHT22;62792;46.236;6.040;2023-12-29T01:47:23;17.40;52.80
74359;DHT22;62792;46.236;6.040;2023-12-29T01:52:26;17.40;52.80
74359;DHT22;62792;46.236;6.040;2023-12-29T01:57:29;17.50;52.70
74359;DHT22;62792;46.236;6.040;2023-12-29T02:02:38;17.50;52.70
74359;DHT22;62792;46.236;6.040;2023-12-29T02:07:41;17.50;52.60
74359;DHT22;62792;46.236;6.040;2023-12-29T02:12:44;17.50;52.60
74359;DHT22;62792;46.236;6.040;2023-12-29T02:17:51;17.60;52.70
74359;DHT22;62792;46.236;6.040;2023-12-29T02:22:55;17.50;52.50
74359;DHT22;62792;46.236;6.040;2023-12-29T02:28:01;17.50;52.50
74359;DHT22;62792;46.236;6.040;2023-12-29T02:33:07;17.50;52.70
74359;DHT22;62792;46.236;6.040;2023-12-29T02:38:13;17.50;52.50
74359;DHT22;62792;46.236;6.040;2023-12-29T02:43:17;17.50;52.50
74359;DHT22;62792;46.236;6.040;2023-12-29T02:48:20;17.50;52.70
74359;DHT22;62792;46.236;6.040;2023-12-29T02:53:23;17.50;52.50
74359;DHT22;62792;46.236;6.040;2023-12-29T02:58:28;17.50;52.80
74359;DHT22;62792;46.236;6.040;2023-12-29T03:03:31;17.50;52.50
74359;DHT22;62792;46.236;6.040;2023-12-29T03:08:34;17.50;52.50
74359;DHT22;62792;46.236;6.040;2023-12-29T03:13:38;17.50;52.50
74359;DHT22;62792;46.236;6.040;2023-12-29T03:18:41;17.50;52.60
74359;DHT22;62792;46.236;6.040;2023-12-29T03:23:44;17.50;52.60
74359;DHT22;62792;46.236;6.040;2023-12-29T03:28:48;17.40;52.50
74359;DHT22;62792;46.236;6.040;2023-12-29T03:33:52;17.50;52.60
74359;DHT22;62792;46.236;6.040;2023-12-29T03:38:55;17.40;52.70
74359;DHT22;62792;46.236;6.040;2023-12-29T03:43:59;17.40;52.80
74359;DHT22;62792;46.236;6.040;2023-12-29T03:49:02;17.50;52.80
74359;DHT22;62792;46.236;6.040;2023-12-29T03:54:05;17.50;52.50
74359;DHT22;62792;46.236;6.040;2023-12-29T03:59:10;17.50;52.70
74359;DHT22;62792;46.236;6.040;2023-12-29T04:04:13;17.50;52.70
74359;DHT22;62792;46.236;6.040;2023-12-29T04:09:16;17.40;52.60
74359;DHT22;62792;46.236;6.040;2023-12-29T04:14:20;17.40;52.90
74359;DHT22;62792;46.236;6.040;2023-12-29T04:19:23;17.40;53.10
74359;DHT22;62792;46.236;6.040;2023-12-29T04:24:26;17.40;52.90
74359;DHT22;62792;46.236;6.040;2023-12-29T04:29:30;17.50;53.10
74359;DHT22;62792;46.236;6.040;2023-12-29T04:34:33;17.40;52.90
74359;DHT22;62792;46.236;6.040;2023-12-29T04:39:36;17.50;52.90
74359;DHT22;62792;46.236;6.040;2023-12-29T04:44:41;17.50;52.70
74359;DHT22;62792;46.236;6.040;2023-12-29T04:49:44;17.60;52.80
74359;DHT22;62792;46.236;6.040;2023-12-29T04:54:47;17.50;52.80
74359;DHT22;62792;46.236;6.040;2023-12-29T04:59:53;17.50;52.70
74359;DHT22;62792;46.236;6.040;2023-12-29T05:04:56;17.40;52.60
74359;DHT22;62792;46.236;6.040;2023-12-29T05:09:59;17.40;52.80
74359;DHT22;62792;46.236;6.040;2023-12-29T05:15:03;17.50;52.90
74359;DHT22;62792;46.236;6.040;2023-12-29T05:20:08;17.60;52.80
74359;DHT22;62792;46.236;6.040;2023-12-29T05:25:12;17.50;52.50
74359;DHT22;62792;46.236;6.040;2023-12-29T05:30:16;17.50;52.80
74359;DHT22;62792;46.236;6.040;2023-12-29T05:35:19;17.50;52.90
74359;DHT22;62792;46.236;6.040;2023-12-29T05:40:22;17.40;53.00
74359;DHT22;62792;46.236;6.040;2023-12-29T05:45:26;17.50;53.00
74359;DHT22;62792;46.236;6.040;2023-12-29T05:50:30;17.50;53.00
74359;DHT22;62792;46.236;6.040;2023-12-29T05:55:33;17.40;53.10
74359;DHT22;62792;46.236;6.040;2023-12-29T06:00:37;17.50;53.40
74359;DHT22;62792;46.236;6.040;2023-12-29T06:05:41;17.40;53.50
74359;DHT22;62792;46.236;6.040;2023-12-29T06:10:47;17.40;53.50
74359;DHT22;62792;46.236;6.040;2023-12-29T06:15:51;17.40;53.70
74359;DHT22;62792;46.236;6.040;2023-12-29T06:20:54;17.50;53.60
74359;DHT22;62792;46.236;6.040;2023-12-29T06:25:57;17.50;53.80
74359;DHT22;62792;46.236;6.040;2023-12-29T06:31:02;17.50;53.70
74359;DHT22;62792;46.236;6.040;2023-12-29T06:36:06;17.40;53.90
74359;DHT22;62792;46.236;6.040;2023-12-29T06:41:09;17.50;54.00
74359;DHT22;62792;46.236;6.040;2023-12-29T06:46:14;17.40;53.80
74359;DHT22;62792;46.236;6.040;2023-12-29T06:51:19;17.40;54.00
74359;DHT22;62792;46.236;6.040;2023-12-29T06:56:25;17.40;54.20
74359;DHT22;62792;46.236;6.040;2023-12-29T07:01:31;17.40;54.30
74359;DHT22;62792;46.236;6.040;2023-12-29T07:06:34;17.40;54.30
74359;DHT22;62792;46.236;6.040;2023-12-29T07:11:37;17.30;54.50
74359;DHT22;62792;46.236;6.040;2023-12-29T07:16:41;17.30;54.60
74359;DHT22;62792;46.236;6.040;2023-12-29T07:21:44;17.30;54.60
74359;DHT22;62792;46.236;6.040;2023-12-29T07:26:48;17.30;54.60
74359;DHT22;62792;46.236;6.040;2023-12-29T07:31:52;17.30;55.00
74359;DHT22;62792;46.236;6.040;2023-12-29T07:36:55;17.30;54.90
74359;DHT22;62792;46.236;6.040;2023-12-29T07:41:58;17.30;55.00
74359;DHT22;62792;46.236;6.040;2023-12-29T07:47:05;17.40;55.00
74359;DHT22;62792;46.236;6.040;2023-12-29T07:52:08;17.30;55.10
74359;DHT22;62792;46.236;6.040;2023-12-29T07:57:11;17.30;55.30
74359;DHT22;62792;46.236;6.040;2023-12-29T08:02:15;17.20;55.20
74359;DHT22;62792;46.236;6.040;2023-12-29T08:07:18;17.30;55.40
74359;DHT22;62792;46.236;6.040;2023-12-29T08:12:21;17.30;55.40
74359;DHT22;62792;46.236;6.040;2023-12-29T08:17:25;17.30;55.40
74359;DHT22;62792;46.236;6.040;2023-12-29T08:22:29;17.40;55.30
74359;DHT22;62792;46.236;6.040;2023-12-29T08:27:32;17.40;55.40
74359;DHT22;62792;46.236;6.040;2023-12-29T08:32:37;17.30;55.20
74359;DHT22;62792;46.236;6.040;2023-12-29T08:37:39;17.30;55.40
74359;DHT22;62792;46.236;6.040;2023-12-29T08:42:42;17.40;55.40
74359;DHT22;62792;46.236;6.040;2023-12-29T08:47:47;17.20;55.80
74359;DHT22;62792;46.236;6.040;2023-12-29T08:52:50;17.40;55.60
74359;DHT22;62792;46.236;6.040;2023-12-29T08:57:53;17.30;55.60
74359;DHT22;62792;46.236;6.040;2023-12-29T09:02:57;17.30;55.40
74359;DHT22;62792;46.236;6.040;2023-12-29T09:08:00;17.30;55.70
74359;DHT22;62792;46.236;6.040;2023-12-29T09:13:03;17.30;55.80
74359;DHT22;62792;46.236;6.040;2023-12-29T09:18:08;17.30;55.70
74359;DHT22;62792;46.236;6.040;2023-12-29T09:23:12;17.40;55.60
74359;DHT22;62792;46.236;6.040;2023-12-29T09:28:14;17.30;55.90
74359;DHT22;62792;46.236;6.040;2023-12-29T09:33:19;17.40;55.90
74359;DHT22;62792;46.236;6.040;2023-12-29T09:38:24;17.40;55.80
74359;DHT22;62792;46.236;6.040;2023-12-29T09:43:27;17.40;56.00
74359;DHT22;62792;46.236;6.040;2023-12-29T09:48:32;17.50;55.80
74359;DHT22;62792;46.236;6.040;2023-12-29T09:53:36;17.50;55.70
74359;DHT22;62792;46.236;6.040;2023-12-29T09:58:40;17.40;55.90
74359;DHT22;62792;46.236;6.040;2023-12-29T10:03:45;17.50;56.00
74359;DHT22;62792;46.236;6.040;2023-12-29T10:08:49;17.50;56.00
74359;DHT22;62792;46.236;6.040;2023-12-29T10:13:53;17.40;56.00
74359;DHT22;62792;46.236;6.040;2023-12-29T10:19:00;17.50;56.20
74359;DHT22;62792;46.236;6.040;2023-12-29T10:24:10;17.50;56.10
74359;DHT22;62792;46.236;6.040;2023-12-29T10:29:15;17.50;56.10
74359;DHT22;62792;46.236;6.040;2023-12-29T10:34:23;17.60;56.10
74359;DHT22;62792;46.236;6.040;2023-12-29T10:39:31;17.50;56.20
74359;DHT22;62792;46.236;6.040;2023-12-29T10:44:34;17.50;56.40
74359;DHT22;62792;46.236;6.040;2023-12-29T10:49:39;17.60;56.00
74359;DHT22;62792;46.236;6.040;2023-12-29T10:54:43;17.50;56.00
74359;DHT22;62792;46.236;6.040;2023-12-29T10:59:51;17.50;56.20
74359;DHT22;62792;46.236;6.040;2023-12-29T11:05:05;17.50;56.20
74359;DHT22;62792;46.236;6.040;2023-12-29T11:10:09;17.60;56.00
74359;DHT22;62792;46.236;6.040;2023-12-29T11:15:12;17.60;56.10
74359;DHT22;62792;46.236;6.040;2023-12-29T11:20:17;17.60;56.00
74359;DHT22;62792;46.236;6.040;2023-12-29T11:25:21;17.70;56.00
74359;DHT22;62792;46.236;6.040;2023-12-29T11:30:24;17.70;56.00
74359;DHT22;62792;46.236;6.040;2023-12-29T11:35:30;17.60;56.30
74359;DHT22;62792;46.236;6.040;2023-12-29T11:40:39;17.60;56.10
74359;DHT22;62792;46.236;6.040;2023-12-29T11:45:46;17.70;56.00
74359;DHT22;62792;46.236;6.040;2023-12-29T11:50:51;17.60;55.90
74359;DHT22;62792;46.236;6.040;2023-12-29T11:55:54;17.80;56.00
74359;DHT22;62792;46.236;6.040;2023-12-29T12:00:58;17.80;56.10
74359;DHT22;62792;46.236;6.040;2023-12-29T12:06:03;17.80;55.90
74359;DHT22;62792;46.236;6.040;2023-12-29T12:16:48;17.70;56.50
74359;DHT22;62792;46.236;6.040;2023-12-29T12:21:56;17.70;56.50
74359;DHT22;62792;46.236;6.040;2023-12-29T12:27:00;17.80;56.30
74359;DHT22;62792;46.236;6.040;2023-12-29T12:32:04;17.70;56.30
74359;DHT22;62792;46.236;6.040;2023-12-29T12:37:10;17.70;56.60
74359;DHT22;62792;46.236;6.040;2023-12-29T12:42:13;17.70;56.30
74359;DHT22;62792;46.236;6.040;2023-12-29T12:47:18;17.70;56.30
74359;DHT22;62792;46.236;6.040;2023-12-29T12:52:35;17.70;56.50
74359;DHT22;62792;46.236;6.040;2023-12-29T12:57:39;17.60;56.60
74359;DHT22;62792;46.236;6.040;2023-12-29T13:02:43;17.70;56.70
74359;DHT22;62792;46.236;6.040;2023-12-29T13:07:48;17.70;56.70
74359;DHT22;62792;46.236;6.040;2023-12-29T13:12:54;17.70;56.80
74359;DHT22;62792;46.236;6.040;2023-12-29T13:17:57;17.70;56.70
74359;DHT22;62792;46.236;6.040;2023-12-29T13:23:02;17.70;57.00
74359;DHT22;62792;46.236;6.040;2023-12-29T13:28:05;17.60;57.10
74359;DHT22;62792;46.236;6.040;2023-12-29T13:33:09;17.60;57.00
74359;DHT22;62792;46.236;6.040;2023-12-29T13:38:17;17.60;57.00
74359;DHT22;62792;46.236;6.040;2023-12-29T13:43:22;17.60;56.90
74359;DHT22;62792;46.236;6.040;2023-12-29T13:48:25;17.50;57.00
74359;DHT22;62792;46.236;6.040;2023-12-29T13:53:30;17.60;57.10
74359;DHT22;62792;46.236;6.040;2023-12-29T13:58:33;17.60;57.10
74359;DHT22;62792;46.236;6.040;2023-12-29T14:03:37;17.60;57.10
74359;DHT22;62792;46.236;6.040;2023-12-29T14:08:47;17.60;57.20
74359;DHT22;62792;46.236;6.040;2023-12-29T14:13:50;17.60;56.90
74359;DHT22;62792;46.236;6.040;2023-12-29T14:18:54;17.60;56.90
74359;DHT22;62792;46.236;6.040;2023-12-29T14:24:00;17.70;56.80
74359;DHT22;62792;46.236;6.040;2023-12-29T14:29:05;17.70;56.80
74359;DHT22;62792;46.236;6.040;2023-12-29T14:34:11;17.70;56.70
74359;DHT22;62792;46.236;6.040;2023-12-29T14:39:16;17.60;56.90
74359;DHT22;62792;46.236;6.040;2023-12-29T14:44:19;17.60;56.80
74359;DHT22;62792;46.236;6.040;2023-12-29T14:49:22;17.60;56.90
74359;DHT22;62792;46.236;6.040;2023-12-29T14:54:26;17.70;56.90
74359;DHT22;62792;46.236;6.040;2023-12-29T14:59:29;17.70;56.90
74359;DHT22;62792;46.236;6.040;2023-12-29T15:04:33;17.70;57.10
74359;DHT22;62792;46.236;6.040;2023-12-29T15:09:38;17.60;57.00
74359;DHT22;62792;46.236;6.040;2023-12-29T15:14:41;17.60;57.00
74359;DHT22;62792;46.236;6.040;2023-12-29T15:19:44;17.70;56.90
74359;DHT22;62792;46.236;6.040;2023-12-29T15:24:49;17.70;57.00
74359;DHT22;62792;46.236;6.040;2023-12-29T15:29:52;17.60;57.10
74359;DHT22;62792;46.236;6.040;2023-12-29T15:34:55;17.60;57.00
74359;DHT22;62792;46.236;6.040;2023-12-29T15:39:59;17.60;57.00
74359;DHT22;62792;46.236;6.040;2023-12-29T15:45:02;17.60;56.90
74359;DHT22;62792;46.236;6.040;2023-12-29T15:50:06;17.60;56.80
74359;DHT22;62792;46.236;6.040;2023-12-29T15:55:12;17.60;57.00
74359;DHT22;62792;46.236;6.040;2023-12-29T16:00:15;17.60;57.20
74359;DHT22;62792;46.236;6.040;2023-12-29T16:05:19;17.60;57.10
74359;DHT22;62792;46.236;6.040;2023-12-29T16:10:23;17.60;57.20
74359;DHT22;62792;46.236;6.040;2023-12-29T16:15:26;17.50;57.10
74359;DHT22;62792;46.236;6.040;2023-12-29T16:20:29;17.50;57.20
74359;DHT22;62792;46.236;6.040;2023-12-29T16:25:33;17.50;57.50
74359;DHT22;62792;46.236;6.040;2023-12-29T16:30:36;17.50;57.30
74359;DHT22;62792;46.236;6.040;2023-12-29T16:35:40;17.50;57.30
74359;DHT22;62792;46.236;6.040;2023-12-29T16:40:44;17.50;57.20
74359;DHT22;62792;46.236;6.040;2023-12-29T16:45:48;17.50;57.30
74359;DHT22;62792;46.236;6.040;2023-12-29T16:50:50;17.40;57.50
74359;DHT22;62792;46.236;6.040;2023-12-29T16:55:55;17.40;57.40
74359;DHT22;62792;46.236;6.040;2023-12-29T17:00:59;17.40;57.60
74359;DHT22;62792;46.236;6.040;2023-12-29T17:06:02;17.50;57.50
74359;DHT22;62792;46.236;6.040;2023-12-29T17:11:07;17.40;57.50
74359;DHT22;62792;46.236;6.040;2023-12-29T17:16:11;17.50;57.50
74359;DHT22;62792;46.236;6.040;2023-12-29T17:21:17;17.40;57.60
74359;DHT22;62792;46.236;6.040;2023-12-29T17:26:21;17.40;57.40
74359;DHT22;62792;46.236;6.040;2023-12-29T17:31:24;17.40;57.70
74359;DHT22;62792;46.236;6.040;2023-12-29T17:36:27;17.40;57.40
74359;DHT22;62792;46.236;6.040;2023-12-29T17:41:31;17.40;57.50
74359;DHT22;62792;46.236;6.040;2023-12-29T17:46:34;17.40;57.30
74359;DHT22;62792;46.236;6.040;2023-12-29T17:51:37;17.40;57.50
74359;DHT22;62792;46.236;6.040;2023-12-29T17:56:41;17.50;57.50
74359;DHT22;62792;46.236;6.040;2023-12-29T18:01:47;17.40;57.30
74359;DHT22;62792;46.236;6.040;2023-12-29T18:06:50;17.40;57.50
74359;DHT22;62792;46.236;6.040;2023-12-29T18:12:08;17.40;57.40
74359;DHT22;62792;46.236;6.040;2023-12-29T18:17:13;17.40;57.50
74359;DHT22;62792;46.236;6.040;2023-12-29T18:22:17;17.40;57.40
74359;DHT22;62792;46.236;6.040;2023-12-29T18:27:22;17.30;57.70
74359;DHT22;62792;46.236;6.040;2023-12-29T18:32:24;17.40;57.40
74359;DHT22;62792;46.236;6.040;2023-12-29T18:37:28;17.40;57.60
74359;DHT22;62792;46.236;6.040;2023-12-29T18:42:32;17.40;57.40
74359;DHT22;62792;46.236;6.040;2023-12-29T18:47:37;17.40;57.40
74359;DHT22;62792;46.236;6.040;2023-12-29T18:52:40;17.40;57.50
74359;DHT22;62792;46.236;6.040;2023-12-29T18:57:46;17.40;57.30
74359;DHT22;62792;46.236;6.040;2023-12-29T19:02:49;17.40;57.50
74359;DHT22;62792;46.236;6.040;2023-12-29T19:07:53;17.40;57.30
74359;DHT22;62792;46.236;6.040;2023-12-29T19:12:57;17.30;57.20
74359;DHT22;62792;46.236;6.040;2023-12-29T19:18:01;17.40;57.40
74359;DHT22;62792;46.236;6.040;2023-12-29T19:23:08;17.40;57.50
74359;DHT22;62792;46.236;6.040;2023-12-29T19:28:12;17.40;57.40
74359;DHT22;62792;46.236;6.040;2023-12-29T19:33:15;17.40;57.30
74359;DHT22;62792;46.236;6.040;2023-12-29T19:38:18;17.40;57.40
74359;DHT22;62792;46.236;6.040;2023-12-29T19:43:25;17.40;57.30
74359;DHT22;62792;46.236;6.040;2023-12-29T19:48:28;17.40;57.30
74359;DHT22;62792;46.236;6.040;2023-12-29T19:53:32;17.40;57.40
74359;DHT22;62792;46.236;6.040;2023-12-29T19:58:36;17.40;57.50
74359;DHT22;62792;46.236;6.040;2023-12-29T20:03:39;17.40;57.70
74359;DHT22;62792;46.236;6.040;2023-12-29T20:08:42;17.30;57.50
74359;DHT22;62792;46.236;6.040;2023-12-29T20:13:48;17.40;57.70
74359;DHT22;62792;46.236;6.040;2023-12-29T20:18:52;17.40;57.50
74359;DHT22;62792;46.236;6.040;2023-12-29T20:23:55;17.40;57.50
74359;DHT22;62792;46.236;6.040;2023-12-29T20:29:01;17.40;57.60
74359;DHT22;62792;46.236;6.040;2023-12-29T20:34:04;17.30;57.70
74359;DHT22;62792;46.236;6.040;2023-12-29T20:39:07;17.40;57.50
74359;DHT22;62792;46.236;6.040;2023-12-29T20:44:12;17.30;57.60
74359;DHT22;62792;46.236;6.040;2023-12-29T20:49:15;17.30;57.70
74359;DHT22;62792;46.236;6.040;2023-12-29T20:54:18;17.30;57.40
74359;DHT22;62792;46.236;6.040;2023-12-29T20:59:24;17.30;57.80
74359;DHT22;62792;46.236;6.040;2023-12-29T21:04:27;17.30;57.60
74359;DHT22;62792;46.236;6.040;2023-12-29T21:09:30;17.30;57.60
74359;DHT22;62792;46.236;6.040;2023-12-29T21:14:34;17.40;57.40
74359;DHT22;62792;46.236;6.040;2023-12-29T21:19:37;17.40;57.40
74359;DHT22;62792;46.236;6.040;2023-12-29T21:24:41;17.40;57.60
74359;DHT22;62792;46.236;6.040;2023-12-29T21:29:48;17.30;57.60
74359;DHT22;62792;46.236;6.040;2023-12-29T21:34:55;17.50;57.30
74359;DHT22;62792;46.236;6.040;2023-12-29T21:40:00;17.40;57.40
74359;DHT22;62792;46.236;6.040;2023-12-29T21:45:05;17.40;57.50
74359;DHT22;62792;46.236;6.040;2023-12-29T21:50:11;17.30;57.30
74359;DHT22;62792;46.236;6.040;2023-12-29T21:55:14;17.50;57.30
74359;DHT22;62792;46.236;6.040;2023-12-29T22:00:18;17.50;57.40
74359;DHT22;62792;46.236;6.040;2023-12-29T22:05:21;17.50;57.40
74359;DHT22;62792;46.236;6.040;2023-12-29T22:10:24;17.40;57.30
74359;DHT22;62792;46.236;6.040;2023-12-29T22:15:30;17.50;57.20
74359;DHT22;62792;46.236;6.040;2023-12-29T22:20:33;17.50;57.40
74359;DHT22;62792;46.236;6.040;2023-12-29T22:25:37;17.50;57.30
74359;DHT22;62792;46.236;6.040;2023-12-29T22:30:41;17.50;57.40
74359;DHT22;62792;46.236;6.040;2023-12-29T22:35:44;17.40;57.30
74359;DHT22;62792;46.236;6.040;2023-12-29T22:40:48;17.40;57.20
74359;DHT22;62792;46.236;6.040;2023-12-29T22:45:52;17.40;57.50
74359;DHT22;62792;46.236;6.040;2023-12-29T22:50:55;17.50;57.50
74359;DHT22;62792;46.236;6.040;2023-12-29T22:55:59;17.50;57.50
74359;DHT22;62792;46.236;6.040;2023-12-29T23:01:04;17.50;57.00
74359;DHT22;62792;46.236;6.040;2023-12-29T23:06:07;17.60;57.10
74359;DHT22;62792;46.236;6.040;2023-12-29T23:11:10;17.50;57.10
74359;DHT22;62792;46.236;6.040;2023-12-29T23:16:15;17.50;57.10
74359;DHT22;62792;46.236;6.040;2023-12-29T23:21:18;17.60;57.30
74359;DHT22;62792;46.236;6.040;2023-12-29T23:26:21;17.50;57.40
74359;DHT22;62792;46.236;6.040;2023-12-29T23:31:27;17.50;57.10
74359;DHT22;62792;46.236;6.040;2023-12-29T23:36:30;17.50;57.20
74359;DHT22;62792;46.236;6.040;2023-12-29T23:41:33;17.50;57.40
74359;DHT22;62792;46.236;6.040;2023-12-29T23:46:37;17.50;57.20
74359;DHT22;62792;46.236;6.040;2023-12-29T23:51:40;17.50;56.90
74359;DHT22;62792;46.236;6.040;2023-12-29T23:56:44;17.60;57.20
